Marion, Mississippi
Current Conditions -  °F | °C
As of 8:58 AM on Friday 24 Oct 2014 (Local Time) from KMEI Reporting Station
Clear Clear  
Wind Chill: 52°   Ceiling: Unl
Heat Index: 52°   Visibility: 10mi
Dew Point: 49°   Wind: 5mph
Humidity: 89%   Direction: 20°NNE
Pressure: 30.14"   Gusts: NA
Location:  32.42°N, 88.65°W
Report Text: KMEI 241358Z 02004KT 10SM CLR 11/09 A3014 RMK AO2 SLP204 T01110094
Loading
Personal Weather Stations






























Interactive Weather Map
Tropical Storm Tracking
New forecast layout! Learn more

10-Day Weather Forecast

Advertisements
Track Severe Weather on mobile